sensor_id;sensor_type;location;lat;lon;timestamp;P1;durP1;ratioP1;P2;durP2;ratioP2
73283;SDS011;61519;60.050;18.582;2022-07-05T00:02:14;3.80;;;1.47;;
73283;SDS011;61519;60.050;18.582;2022-07-05T00:04:40;3.03;;;1.30;;
73283;SDS011;61519;60.050;18.582;2022-07-05T00:07:06;4.38;;;1.27;;
73283;SDS011;61519;60.050;18.582;2022-07-05T00:09:44;2.90;;;1.30;;
73283;SDS011;61519;60.050;18.582;2022-07-05T00:12:10;3.10;;;1.17;;
73283;SDS011;61519;60.050;18.582;2022-07-05T00:14:38;4.10;;;1.33;;
73283;SDS011;61519;60.050;18.582;2022-07-05T00:17:04;3.08;;;1.40;;
73283;SDS011;61519;60.050;18.582;2022-07-05T00:19:29;3.73;;;1.13;;
73283;SDS011;61519;60.050;18.582;2022-07-05T00:21:55;2.70;;;1.30;;
73283;SDS011;61519;60.050;18.582;2022-07-05T00:24:20;2.90;;;1.40;;
73283;SDS011;61519;60.050;18.582;2022-07-05T00:26:45;5.47;;;1.30;;
73283;SDS011;61519;60.050;18.582;2022-07-05T00:29:11;3.33;;;1.23;;
73283;SDS011;61519;60.050;18.582;2022-07-05T00:31:37;3.83;;;1.33;;
73283;SDS011;61519;60.050;18.582;2022-07-05T00:34:02;4.97;;;1.40;;
73283;SDS011;61519;60.050;18.582;2022-07-05T00:36:28;3.50;;;1.33;;
73283;SDS011;61519;60.050;18.582;2022-07-05T00:38:53;3.23;;;1.27;;
73283;SDS011;61519;60.050;18.582;2022-07-05T00:41:19;3.20;;;1.75;;
73283;SDS011;61519;60.050;18.582;2022-07-05T00:43:51;3.55;;;1.33;;
73283;SDS011;61519;60.050;18.582;2022-07-05T00:46:35;2.85;;;1.30;;
73283;SDS011;61519;60.050;18.582;2022-07-05T00:49:02;3.73;;;1.37;;
73283;SDS011;61519;60.050;18.582;2022-07-05T00:51:32;3.33;;;1.35;;
73283;SDS011;61519;60.050;18.582;2022-07-05T00:53:59;2.88;;;1.20;;
73283;SDS011;61519;60.050;18.582;2022-07-05T00:56:25;3.45;;;1.30;;
73283;SDS011;61519;60.050;18.582;2022-07-05T00:58:51;3.17;;;1.30;;
73283;SDS011;61519;60.050;18.582;2022-07-05T01:01:17;2.30;;;1.00;;
73283;SDS011;61519;60.050;18.582;2022-07-05T01:03:43;3.00;;;1.40;;
73283;SDS011;61519;60.050;18.582;2022-07-05T01:06:10;2.42;;;1.17;;
73283;SDS011;61519;60.050;18.582;2022-07-05T01:08:37;4.13;;;1.42;;
73283;SDS011;61519;60.050;18.582;2022-07-05T01:11:05;4.50;;;1.35;;
73283;SDS011;61519;60.050;18.582;2022-07-05T01:13:31;4.90;;;1.20;;
73283;SDS011;61519;60.050;18.582;2022-07-05T01:15:56;3.38;;;1.30;;
73283;SDS011;61519;60.050;18.582;2022-07-05T01:18:22;3.47;;;1.27;;
73283;SDS011;61519;60.050;18.582;2022-07-05T01:20:48;4.07;;;1.00;;
73283;SDS011;61519;60.050;18.582;2022-07-05T01:23:14;3.00;;;1.30;;
73283;SDS011;61519;60.050;18.582;2022-07-05T01:25:40;2.92;;;1.30;;
73283;SDS011;61519;60.050;18.582;2022-07-05T01:28:05;4.57;;;1.25;;
73283;SDS011;61519;60.050;18.582;2022-07-05T01:30:31;5.00;;;1.83;;
73283;SDS011;61519;60.050;18.582;2022-07-05T01:32:59;4.57;;;1.27;;
73283;SDS011;61519;60.050;18.582;2022-07-05T01:35:24;2.97;;;1.60;;
73283;SDS011;61519;60.050;18.582;2022-07-05T01:37:50;2.90;;;1.30;;
73283;SDS011;61519;60.050;18.582;2022-07-05T01:40:17;2.70;;;1.25;;
73283;SDS011;61519;60.050;18.582;2022-07-05T01:42:43;3.03;;;1.50;;
73283;SDS011;61519;60.050;18.582;2022-07-05T01:45:09;3.95;;;1.30;;
73283;SDS011;61519;60.050;18.582;2022-07-05T01:47:35;2.93;;;1.30;;
73283;SDS011;61519;60.050;18.582;2022-07-05T01:50:02;4.30;;;1.55;;
73283;SDS011;61519;60.050;18.582;2022-07-05T01:52:30;4.63;;;1.63;;
73283;SDS011;61519;60.050;18.582;2022-07-05T01:54:59;2.65;;;1.00;;
73283;SDS011;61519;60.050;18.582;2022-07-05T01:57:27;3.20;;;1.40;;
73283;SDS011;61519;60.050;18.582;2022-07-05T01:59:52;5.50;;;1.37;;
73283;SDS011;61519;60.050;18.582;2022-07-05T02:02:18;4.38;;;1.48;;
73283;SDS011;61519;60.050;18.582;2022-07-05T02:04:43;3.10;;;1.40;;
73283;SDS011;61519;60.050;18.582;2022-07-05T02:07:09;3.73;;;1.23;;
73283;SDS011;61519;60.050;18.582;2022-07-05T02:09:35;3.47;;;1.30;;
73283;SDS011;61519;60.050;18.582;2022-07-05T02:12:01;3.78;;;1.10;;
73283;SDS011;61519;60.050;18.582;2022-07-05T02:14:27;4.93;;;1.23;;
73283;SDS011;61519;60.050;18.582;2022-07-05T02:16:53;3.93;;;1.30;;
73283;SDS011;61519;60.050;18.582;2022-07-05T02:19:19;3.67;;;1.73;;
73283;SDS011;61519;60.050;18.582;2022-07-05T02:21:44;2.78;;;1.10;;
73283;SDS011;61519;60.050;18.582;2022-07-05T02:24:09;3.80;;;1.30;;
73283;SDS011;61519;60.050;18.582;2022-07-05T02:26:35;2.60;;;1.20;;
73283;SDS011;61519;60.050;18.582;2022-07-05T02:29:01;4.80;;;1.30;;
73283;SDS011;61519;60.050;18.582;2022-07-05T02:31:28;4.15;;;1.08;;
73283;SDS011;61519;60.050;18.582;2022-07-05T02:33:53;3.00;;;1.17;;
73283;SDS011;61519;60.050;18.582;2022-07-05T02:36:18;6.93;;;1.20;;
73283;SDS011;61519;60.050;18.582;2022-07-05T02:38:44;2.93;;;1.33;;
73283;SDS011;61519;60.050;18.582;2022-07-05T02:41:10;3.08;;;1.20;;
73283;SDS011;61519;60.050;18.582;2022-07-05T02:43:36;5.00;;;1.33;;
73283;SDS011;61519;60.050;18.582;2022-07-05T02:46:03;3.15;;;1.15;;
73283;SDS011;61519;60.050;18.582;2022-07-05T02:48:29;4.05;;;1.15;;
73283;SDS011;61519;60.050;18.582;2022-07-05T02:50:55;3.13;;;1.47;;
73283;SDS011;61519;60.050;18.582;2022-07-05T02:53:21;2.80;;;1.30;;
73283;SDS011;61519;60.050;18.582;2022-07-05T02:55:47;4.20;;;1.30;;
73283;SDS011;61519;60.050;18.582;2022-07-05T02:58:12;3.33;;;1.50;;
73283;SDS011;61519;60.050;18.582;2022-07-05T03:00:38;3.07;;;1.10;;
73283;SDS011;61519;60.050;18.582;2022-07-05T03:03:03;4.40;;;1.10;;
73283;SDS011;61519;60.050;18.582;2022-07-05T03:05:29;5.00;;;1.33;;
73283;SDS011;61519;60.050;18.582;2022-07-05T03:07:54;2.67;;;1.00;;
73283;SDS011;61519;60.050;18.582;2022-07-05T03:10:19;5.13;;;1.20;;
73283;SDS011;61519;60.050;18.582;2022-07-05T03:12:45;3.00;;;1.13;;
73283;SDS011;61519;60.050;18.582;2022-07-05T03:15:10;3.63;;;1.67;;
73283;SDS011;61519;60.050;18.582;2022-07-05T03:17:36;2.72;;;1.13;;
73283;SDS011;61519;60.050;18.582;2022-07-05T03:20:02;5.27;;;1.07;;
73283;SDS011;61519;60.050;18.582;2022-07-05T03:22:28;4.07;;;1.38;;
73283;SDS011;61519;60.050;18.582;2022-07-05T03:24:53;4.20;;;1.00;;
73283;SDS011;61519;60.050;18.582;2022-07-05T03:27:19;2.40;;;1.10;;
73283;SDS011;61519;60.050;18.582;2022-07-05T03:29:44;3.13;;;1.42;;
73283;SDS011;61519;60.050;18.582;2022-07-05T03:32:10;4.30;;;1.13;;
73283;SDS011;61519;60.050;18.582;2022-07-05T03:34:35;2.57;;;1.20;;
73283;SDS011;61519;60.050;18.582;2022-07-05T03:37:00;3.87;;;1.10;;
73283;SDS011;61519;60.050;18.582;2022-07-05T03:39:26;4.35;;;1.10;;
73283;SDS011;61519;60.050;18.582;2022-07-05T03:41:51;4.05;;;1.10;;
73283;SDS011;61519;60.050;18.582;2022-07-05T03:44:17;5.20;;;1.40;;
73283;SDS011;61519;60.050;18.582;2022-07-05T03:46:42;3.83;;;1.10;;
73283;SDS011;61519;60.050;18.582;2022-07-05T03:49:08;2.50;;;1.10;;
73283;SDS011;61519;60.050;18.582;2022-07-05T03:51:33;2.53;;;0.98;;
73283;SDS011;61519;60.050;18.582;2022-07-05T03:53:59;3.43;;;1.10;;
73283;SDS011;61519;60.050;18.582;2022-07-05T03:56:25;2.75;;;1.13;;
73283;SDS011;61519;60.050;18.582;2022-07-05T03:58:50;4.20;;;1.40;;
73283;SDS011;61519;60.050;18.582;2022-07-05T04:01:16;3.20;;;1.20;;
73283;SDS011;61519;60.050;18.582;2022-07-05T04:03:41;4.68;;;1.38;;
73283;SDS011;61519;60.050;18.582;2022-07-05T04:06:10;3.63;;;1.30;;
73283;SDS011;61519;60.050;18.582;2022-07-05T04:08:36;3.10;;;1.02;;
73283;SDS011;61519;60.050;18.582;2022-07-05T04:11:02;2.50;;;1.00;;
73283;SDS011;61519;60.050;18.582;2022-07-05T04:13:28;2.83;;;1.35;;
73283;SDS011;61519;60.050;18.582;2022-07-05T04:15:53;3.00;;;0.90;;
73283;SDS011;61519;60.050;18.582;2022-07-05T04:18:20;2.50;;;1.00;;
73283;SDS011;61519;60.050;18.582;2022-07-05T04:20:46;3.15;;;1.40;;
73283;SDS011;61519;60.050;18.582;2022-07-05T04:23:12;2.90;;;1.10;;
73283;SDS011;61519;60.050;18.582;2022-07-05T04:25:37;4.60;;;1.30;;
73283;SDS011;61519;60.050;18.582;2022-07-05T04:28:03;2.50;;;1.10;;
73283;SDS011;61519;60.050;18.582;2022-07-05T04:30:28;3.17;;;1.27;;
73283;SDS011;61519;60.050;18.582;2022-07-05T04:32:54;2.63;;;1.00;;
73283;SDS011;61519;60.050;18.582;2022-07-05T04:35:19;2.92;;;1.02;;
73283;SDS011;61519;60.050;18.582;2022-07-05T04:37:45;4.03;;;1.03;;
73283;SDS011;61519;60.050;18.582;2022-07-05T04:40:11;4.00;;;0.98;;
73283;SDS011;61519;60.050;18.582;2022-07-05T04:42:37;4.03;;;1.23;;
73283;SDS011;61519;60.050;18.582;2022-07-05T04:45:03;3.55;;;1.05;;
73283;SDS011;61519;60.050;18.582;2022-07-05T04:47:29;3.83;;;1.13;;
73283;SDS011;61519;60.050;18.582;2022-07-05T04:49:54;3.58;;;1.08;;
73283;SDS011;61519;60.050;18.582;2022-07-05T04:52:21;2.60;;;0.90;;
73283;SDS011;61519;60.050;18.582;2022-07-05T04:54:47;2.92;;;1.00;;
73283;SDS011;61519;60.050;18.582;2022-07-05T04:57:13;4.40;;;1.10;;
73283;SDS011;61519;60.050;18.582;2022-07-05T04:59:38;3.63;;;1.00;;
73283;SDS011;61519;60.050;18.582;2022-07-05T05:02:04;2.25;;;0.90;;
73283;SDS011;61519;60.050;18.582;2022-07-05T05:04:29;2.92;;;1.00;;
73283;SDS011;61519;60.050;18.582;2022-07-05T05:06:55;3.50;;;0.90;;
73283;SDS011;61519;60.050;18.582;2022-07-05T05:09:20;1.90;;;0.83;;
73283;SDS011;61519;60.050;18.582;2022-07-05T05:11:46;2.53;;;0.80;;
73283;SDS011;61519;60.050;18.582;2022-07-05T05:14:12;3.90;;;0.97;;
73283;SDS011;61519;60.050;18.582;2022-07-05T05:16:37;3.58;;;0.80;;
73283;SDS011;61519;60.050;18.582;2022-07-05T05:19:03;2.57;;;1.20;;
73283;SDS011;61519;60.050;18.582;2022-07-05T05:21:28;2.75;;;1.08;;
73283;SDS011;61519;60.050;18.582;2022-07-05T05:23:54;3.17;;;1.07;;
73283;SDS011;61519;60.050;18.582;2022-07-05T05:26:19;3.27;;;1.27;;
73283;SDS011;61519;60.050;18.582;2022-07-05T05:28:45;4.30;;;1.10;;
73283;SDS011;61519;60.050;18.582;2022-07-05T05:31:10;2.58;;;0.82;;
73283;SDS011;61519;60.050;18.582;2022-07-05T05:33:36;3.07;;;0.90;;
73283;SDS011;61519;60.050;18.582;2022-07-05T05:36:02;2.87;;;0.80;;
73283;SDS011;61519;60.050;18.582;2022-07-05T05:38:27;3.00;;;0.80;;
73283;SDS011;61519;60.050;18.582;2022-07-05T05:40:53;3.97;;;0.90;;
73283;SDS011;61519;60.050;18.582;2022-07-05T05:43:19;4.25;;;1.10;;
73283;SDS011;61519;60.050;18.582;2022-07-05T05:45:44;2.53;;;0.70;;
73283;SDS011;61519;60.050;18.582;2022-07-05T05:48:09;4.07;;;1.33;;
73283;SDS011;61519;60.050;18.582;2022-07-05T05:50:36;2.13;;;0.80;;
73283;SDS011;61519;60.050;18.582;2022-07-05T05:53:05;3.05;;;0.98;;
73283;SDS011;61519;60.050;18.582;2022-07-05T05:55:32;2.70;;;0.90;;
73283;SDS011;61519;60.050;18.582;2022-07-05T05:58:13;4.78;;;1.00;;
73283;SDS011;61519;60.050;18.582;2022-07-05T06:00:40;5.13;;;0.90;;
73283;SDS011;61519;60.050;18.582;2022-07-05T06:03:06;3.37;;;0.90;;
73283;SDS011;61519;60.050;18.582;2022-07-05T06:05:32;4.82;;;0.90;;
73283;SDS011;61519;60.050;18.582;2022-07-05T06:07:57;3.10;;;0.90;;
73283;SDS011;61519;60.050;18.582;2022-07-05T06:10:27;4.97;;;0.90;;
73283;SDS011;61519;60.050;18.582;2022-07-05T06:12:56;6.50;;;1.10;;
73283;SDS011;61519;60.050;18.582;2022-07-05T06:15:23;2.65;;;0.90;;
73283;SDS011;61519;60.050;18.582;2022-07-05T06:17:48;7.77;;;1.40;;
73283;SDS011;61519;60.050;18.582;2022-07-05T06:20:17;3.45;;;0.95;;
73283;SDS011;61519;60.050;18.582;2022-07-05T06:22:44;3.50;;;1.40;;
73283;SDS011;61519;60.050;18.582;2022-07-05T06:25:10;3.00;;;1.40;;
73283;SDS011;61519;60.050;18.582;2022-07-05T06:27:42;4.05;;;1.38;;
73283;SDS011;61519;60.050;18.582;2022-07-05T06:30:10;5.05;;;1.50;;
73283;SDS011;61519;60.050;18.582;2022-07-05T06:32:37;4.95;;;1.17;;
73283;SDS011;61519;60.050;18.582;2022-07-05T06:35:03;4.60;;;1.10;;
73283;SDS011;61519;60.050;18.582;2022-07-05T06:37:39;3.97;;;1.88;;
73283;SDS011;61519;60.050;18.582;2022-07-05T06:40:09;4.80;;;1.13;;
73283;SDS011;61519;60.050;18.582;2022-07-05T06:42:39;3.53;;;1.23;;
73283;SDS011;61519;60.050;18.582;2022-07-05T06:45:05;4.20;;;1.65;;
73283;SDS011;61519;60.050;18.582;2022-07-05T06:47:31;5.25;;;1.58;;
73283;SDS011;61519;60.050;18.582;2022-07-05T06:49:57;4.13;;;1.73;;
73283;SDS011;61519;60.050;18.582;2022-07-05T06:52:23;3.75;;;1.60;;
73283;SDS011;61519;60.050;18.582;2022-07-05T06:54:49;6.13;;;2.30;;
73283;SDS011;61519;60.050;18.582;2022-07-05T06:57:18;4.53;;;1.97;;
73283;SDS011;61519;60.050;18.582;2022-07-05T06:59:44;4.97;;;2.60;;
73283;SDS011;61519;60.050;18.582;2022-07-05T07:02:10;5.07;;;2.97;;
73283;SDS011;61519;60.050;18.582;2022-07-05T07:04:35;6.73;;;3.43;;
73283;SDS011;61519;60.050;18.582;2022-07-05T07:07:01;4.60;;;3.80;;
73283;SDS011;61519;60.050;18.582;2022-07-05T07:09:26;5.03;;;3.73;;
73283;SDS011;61519;60.050;18.582;2022-07-05T07:11:52;6.68;;;3.35;;
73283;SDS011;61519;60.050;18.582;2022-07-05T07:14:17;4.15;;;3.20;;
73283;SDS011;61519;60.050;18.582;2022-07-05T07:16:43;5.50;;;2.17;;
73283;SDS011;61519;60.050;18.582;2022-07-05T07:19:08;5.40;;;2.10;;
73283;SDS011;61519;60.050;18.582;2022-07-05T07:21:34;3.95;;;2.20;;
73283;SDS011;61519;60.050;18.582;2022-07-05T07:23:59;4.57;;;1.80;;
73283;SDS011;61519;60.050;18.582;2022-07-05T07:26:25;2.92;;;1.50;;
73283;SDS011;61519;60.050;18.582;2022-07-05T07:28:51;5.27;;;1.77;;
73283;SDS011;61519;60.050;18.582;2022-07-05T07:31:16;3.55;;;1.58;;
73283;SDS011;61519;60.050;18.582;2022-07-05T07:33:42;3.85;;;1.70;;
73283;SDS011;61519;60.050;18.582;2022-07-05T07:36:07;3.47;;;1.57;;
73283;SDS011;61519;60.050;18.582;2022-07-05T07:38:33;3.77;;;1.77;;
73283;SDS011;61519;60.050;18.582;2022-07-05T07:40:58;3.35;;;1.40;;
73283;SDS011;61519;60.050;18.582;2022-07-05T07:43:25;3.92;;;1.45;;
73283;SDS011;61519;60.050;18.582;2022-07-05T07:45:51;4.07;;;1.20;;
73283;SDS011;61519;60.050;18.582;2022-07-05T07:48:17;3.83;;;1.38;;
73283;SDS011;61519;60.050;18.582;2022-07-05T07:50:43;3.67;;;1.00;;
73283;SDS011;61519;60.050;18.582;2022-07-05T07:53:09;3.13;;;0.90;;
73283;SDS011;61519;60.050;18.582;2022-07-05T07:55:34;5.07;;;1.40;;
73283;SDS011;61519;60.050;18.582;2022-07-05T07:58:00;4.33;;;1.20;;
73283;SDS011;61519;60.050;18.582;2022-07-05T08:00:26;4.40;;;1.33;;
73283;SDS011;61519;60.050;18.582;2022-07-05T08:02:51;5.27;;;1.37;;
73283;SDS011;61519;60.050;18.582;2022-07-05T08:05:17;4.47;;;1.23;;
73283;SDS011;61519;60.050;18.582;2022-07-05T08:07:42;5.22;;;1.30;;
73283;SDS011;61519;60.050;18.582;2022-07-05T08:10:08;3.30;;;1.50;;
73283;SDS011;61519;60.050;18.582;2022-07-05T08:12:34;4.15;;;1.60;;
73283;SDS011;61519;60.050;18.582;2022-07-05T08:14:59;3.23;;;1.40;;
73283;SDS011;61519;60.050;18.582;2022-07-05T08:17:24;3.83;;;1.27;;
73283;SDS011;61519;60.050;18.582;2022-07-05T08:19:50;4.23;;;0.93;;
73283;SDS011;61519;60.050;18.582;2022-07-05T08:22:41;4.85;;;1.05;;
73283;SDS011;61519;60.050;18.582;2022-07-05T08:25:07;3.97;;;0.87;;
73283;SDS011;61519;60.050;18.582;2022-07-05T08:27:32;5.22;;;1.33;;
73283;SDS011;61519;60.050;18.582;2022-07-05T08:29:58;4.43;;;1.13;;
73283;SDS011;61519;60.050;18.582;2022-07-05T08:32:23;3.07;;;1.10;;
73283;SDS011;61519;60.050;18.582;2022-07-05T08:34:49;5.20;;;1.00;;
73283;SDS011;61519;60.050;18.582;2022-07-05T08:37:14;5.57;;;1.27;;
73283;SDS011;61519;60.050;18.582;2022-07-05T08:39:40;4.35;;;1.10;;
73283;SDS011;61519;60.050;18.582;2022-07-05T08:42:08;5.10;;;1.53;;
73283;SDS011;61519;60.050;18.582;2022-07-05T08:44:35;4.95;;;1.60;;
73283;SDS011;61519;60.050;18.582;2022-07-05T08:47:04;4.53;;;1.75;;
73283;SDS011;61519;60.050;18.582;2022-07-05T08:49:33;3.90;;;1.20;;
73283;SDS011;61519;60.050;18.582;2022-07-05T08:51:59;4.00;;;1.65;;
73283;SDS011;61519;60.050;18.582;2022-07-05T08:54:29;5.60;;;2.20;;
73283;SDS011;61519;60.050;18.582;2022-07-05T08:56:55;4.22;;;2.08;;
73283;SDS011;61519;60.050;18.582;2022-07-05T08:59:21;4.83;;;2.13;;
73283;SDS011;61519;60.050;18.582;2022-07-05T09:01:46;4.27;;;1.93;;
73283;SDS011;61519;60.050;18.582;2022-07-05T09:04:13;5.50;;;1.90;;
73283;SDS011;61519;60.050;18.582;2022-07-05T09:06:38;4.97;;;2.47;;
73283;SDS011;61519;60.050;18.582;2022-07-05T09:09:05;3.55;;;2.15;;
73283;SDS011;61519;60.050;18.582;2022-07-05T09:11:35;6.10;;;2.67;;
73283;SDS011;61519;60.050;18.582;2022-07-05T09:14:02;4.15;;;2.70;;
73283;SDS011;61519;60.050;18.582;2022-07-05T09:16:29;6.47;;;3.00;;
73283;SDS011;61519;60.050;18.582;2022-07-05T09:18:55;5.75;;;1.95;;
73283;SDS011;61519;60.050;18.582;2022-07-05T09:26:36;4.47;;;1.10;;
73283;SDS011;61519;60.050;18.582;2022-07-05T09:29:04;5.57;;;1.45;;
73283;SDS011;61519;60.050;18.582;2022-07-05T09:31:36;5.88;;;2.13;;
73283;SDS011;61519;60.050;18.582;2022-07-05T09:34:03;3.00;;;1.30;;
73283;SDS011;61519;60.050;18.582;2022-07-05T09:36:57;6.28;;;1.92;;
73283;SDS011;61519;60.050;18.582;2022-07-05T09:42:10;4.32;;;2.28;;
73283;SDS011;61519;60.050;18.582;2022-07-05T09:44:41;5.32;;;1.70;;
73283;SDS011;61519;60.050;18.582;2022-07-05T09:47:08;4.60;;;1.90;;
73283;SDS011;61519;60.050;18.582;2022-07-05T09:49:35;5.10;;;2.13;;
73283;SDS011;61519;60.050;18.582;2022-07-05T09:52:02;3.20;;;1.60;;
73283;SDS011;61519;60.050;18.582;2022-07-05T09:54:28;8.63;;;2.03;;
73283;SDS011;61519;60.050;18.582;2022-07-05T09:56:53;5.80;;;2.57;;
73283;SDS011;61519;60.050;18.582;2022-07-05T09:59:19;5.68;;;3.17;;
73283;SDS011;61519;60.050;18.582;2022-07-05T10:01:46;5.35;;;2.30;;
73283;SDS011;61519;60.050;18.582;2022-07-05T10:04:11;5.85;;;2.95;;
73283;SDS011;61519;60.050;18.582;2022-07-05T10:06:37;6.37;;;3.30;;
73283;SDS011;61519;60.050;18.582;2022-07-05T10:09:03;4.25;;;2.38;;
73283;SDS011;61519;60.050;18.582;2022-07-05T10:11:29;4.35;;;2.13;;
73283;SDS011;61519;60.050;18.582;2022-07-05T10:13:55;4.35;;;2.13;;
73283;SDS011;61519;60.050;18.582;2022-07-05T10:16:23;6.88;;;1.65;;
73283;SDS011;61519;60.050;18.582;2022-07-05T10:18:52;5.07;;;2.23;;
73283;SDS011;61519;60.050;18.582;2022-07-05T10:21:20;4.15;;;2.05;;
73283;SDS011;61519;60.050;18.582;2022-07-05T10:23:46;8.18;;;1.58;;
73283;SDS011;61519;60.050;18.582;2022-07-05T10:26:13;3.38;;;1.30;;
73283;SDS011;61519;60.050;18.582;2022-07-05T10:28:40;4.72;;;2.35;;
73283;SDS011;61519;60.050;18.582;2022-07-05T10:31:06;3.42;;;1.60;;
73283;SDS011;61519;60.050;18.582;2022-07-05T10:33:34;3.17;;;1.38;;
73283;SDS011;61519;60.050;18.582;2022-07-05T10:36:00;5.73;;;1.63;;
73283;SDS011;61519;60.050;18.582;2022-07-05T10:38:25;3.95;;;1.20;;
73283;SDS011;61519;60.050;18.582;2022-07-05T10:40:52;3.83;;;1.53;;
73283;SDS011;61519;60.050;18.582;2022-07-05T10:43:23;5.43;;;2.38;;
73283;SDS011;61519;60.050;18.582;2022-07-05T10:45:50;3.15;;;1.40;;
73283;SDS011;61519;60.050;18.582;2022-07-05T10:48:17;4.25;;;1.55;;
73283;SDS011;61519;60.050;18.582;2022-07-05T10:50:48;4.15;;;1.17;;
73283;SDS011;61519;60.050;18.582;2022-07-05T10:53:24;4.15;;;1.45;;
73283;SDS011;61519;60.050;18.582;2022-07-05T10:58:20;3.47;;;1.55;;
73283;SDS011;61519;60.050;18.582;2022-07-05T11:11:27;6.68;;;1.13;;
73283;SDS011;61519;60.050;18.582;2022-07-05T11:13:57;3.33;;;1.40;;
73283;SDS011;61519;60.050;18.582;2022-07-05T11:19:14;6.93;;;1.10;;
73283;SDS011;61519;60.050;18.582;2022-07-05T11:24:34;6.35;;;1.42;;
73283;SDS011;61519;60.050;18.582;2022-07-05T11:27:02;2.05;;;0.90;;
73283;SDS011;61519;60.050;18.582;2022-07-05T11:29:42;4.60;;;1.00;;
73283;SDS011;61519;60.050;18.582;2022-07-05T11:32:36;2.70;;;1.00;;
73283;SDS011;61519;60.050;18.582;2022-07-05T11:35:17;4.97;;;0.80;;
73283;SDS011;61519;60.050;18.582;2022-07-05T11:42:51;3.45;;;0.95;;
73283;SDS011;61519;60.050;18.582;2022-07-05T11:45:16;2.55;;;0.90;;
73283;SDS011;61519;60.050;18.582;2022-07-05T11:47:43;3.88;;;0.88;;
73283;SDS011;61519;60.050;18.582;2022-07-05T11:50:08;4.20;;;1.00;;
73283;SDS011;61519;60.050;18.582;2022-07-05T11:52:35;4.30;;;1.20;;
73283;SDS011;61519;60.050;18.582;2022-07-05T11:55:07;5.32;;;0.80;;
73283;SDS011;61519;60.050;18.582;2022-07-05T11:57:35;4.07;;;0.73;;
73283;SDS011;61519;60.050;18.582;2022-07-05T12:00:00;3.33;;;0.60;;
73283;SDS011;61519;60.050;18.582;2022-07-05T12:02:26;2.33;;;0.70;;
73283;SDS011;61519;60.050;18.582;2022-07-05T12:04:53;3.47;;;0.80;;
73283;SDS011;61519;60.050;18.582;2022-07-05T12:07:29;3.13;;;0.80;;
73283;SDS011;61519;60.050;18.582;2022-07-05T12:09:54;3.97;;;0.88;;
73283;SDS011;61519;60.050;18.582;2022-07-05T12:12:39;3.33;;;0.60;;
73283;SDS011;61519;60.050;18.582;2022-07-05T12:17:34;4.95;;;0.80;;
73283;SDS011;61519;60.050;18.582;2022-07-05T12:20:00;4.32;;;0.77;;
73283;SDS011;61519;60.050;18.582;2022-07-05T12:25:02;7.15;;;0.90;;
73283;SDS011;61519;60.050;18.582;2022-07-05T12:27:29;2.38;;;0.68;;
73283;SDS011;61519;60.050;18.582;2022-07-05T12:29:56;3.03;;;0.88;;
73283;SDS011;61519;60.050;18.582;2022-07-05T12:32:22;3.42;;;1.02;;
73283;SDS011;61519;60.050;18.582;2022-07-05T12:34:48;4.28;;;1.15;;
73283;SDS011;61519;60.050;18.582;2022-07-05T12:37:23;3.87;;;0.77;;
73283;SDS011;61519;60.050;18.582;2022-07-05T12:39:50;5.30;;;0.90;;
73283;SDS011;61519;60.050;18.582;2022-07-05T12:42:31;4.50;;;0.93;;
73283;SDS011;61519;60.050;18.582;2022-07-05T12:45:13;4.32;;;0.90;;
73283;SDS011;61519;60.050;18.582;2022-07-05T12:50:22;3.05;;;0.70;;
73283;SDS011;61519;60.050;18.582;2022-07-05T12:55:50;4.38;;;0.80;;
73283;SDS011;61519;60.050;18.582;2022-07-05T12:58:44;3.65;;;0.77;;
73283;SDS011;61519;60.050;18.582;2022-07-05T13:01:32;3.33;;;0.70;;
73283;SDS011;61519;60.050;18.582;2022-07-05T13:04:08;4.10;;;0.63;;
73283;SDS011;61519;60.050;18.582;2022-07-05T13:09:10;3.28;;;0.50;;
73283;SDS011;61519;60.050;18.582;2022-07-05T13:11:37;6.05;;;0.80;;
73283;SDS011;61519;60.050;18.582;2022-07-05T13:14:02;3.40;;;0.70;;
73283;SDS011;61519;60.050;18.582;2022-07-05T13:16:28;2.80;;;0.80;;
73283;SDS011;61519;60.050;18.582;2022-07-05T13:18:53;2.58;;;0.75;;
73283;SDS011;61519;60.050;18.582;2022-07-05T13:21:19;2.20;;;0.90;;
73283;SDS011;61519;60.050;18.582;2022-07-05T13:23:44;2.97;;;0.70;;
73283;SDS011;61519;60.050;18.582;2022-07-05T13:26:10;1.77;;;0.57;;
73283;SDS011;61519;60.050;18.582;2022-07-05T13:28:35;3.10;;;0.93;;
73283;SDS011;61519;60.050;18.582;2022-07-05T13:31:01;2.47;;;0.70;;
73283;SDS011;61519;60.050;18.582;2022-07-05T13:33:26;2.92;;;0.90;;
73283;SDS011;61519;60.050;18.582;2022-07-05T13:35:52;3.35;;;0.70;;
73283;SDS011;61519;60.050;18.582;2022-07-05T13:38:17;3.47;;;0.87;;
73283;SDS011;61519;60.050;18.582;2022-07-05T13:40:43;4.13;;;0.70;;
73283;SDS011;61519;60.050;18.582;2022-07-05T13:43:08;1.93;;;0.70;;
73283;SDS011;61519;60.050;18.582;2022-07-05T13:45:34;3.70;;;0.63;;
73283;SDS011;61519;60.050;18.582;2022-07-05T13:47:59;3.97;;;0.87;;
73283;SDS011;61519;60.050;18.582;2022-07-05T13:50:24;2.60;;;0.63;;
73283;SDS011;61519;60.050;18.582;2022-07-05T13:52:56;3.28;;;0.60;;
73283;SDS011;61519;60.050;18.582;2022-07-05T13:55:21;4.03;;;0.83;;
73283;SDS011;61519;60.050;18.582;2022-07-05T13:57:47;3.73;;;0.73;;
73283;SDS011;61519;60.050;18.582;2022-07-05T14:00:12;3.90;;;0.80;;
73283;SDS011;61519;60.050;18.582;2022-07-05T14:02:38;2.20;;;0.50;;
73283;SDS011;61519;60.050;18.582;2022-07-05T14:05:04;2.60;;;0.60;;
73283;SDS011;61519;60.050;18.582;2022-07-05T14:07:30;2.78;;;0.50;;
73283;SDS011;61519;60.050;18.582;2022-07-05T14:09:56;3.33;;;0.60;;
73283;SDS011;61519;60.050;18.582;2022-07-05T14:12:21;4.47;;;0.80;;
73283;SDS011;61519;60.050;18.582;2022-07-05T14:14:47;1.70;;;0.60;;
73283;SDS011;61519;60.050;18.582;2022-07-05T14:17:12;2.93;;;0.77;;
73283;SDS011;61519;60.050;18.582;2022-07-05T14:19:37;4.70;;;0.55;;
73283;SDS011;61519;60.050;18.582;2022-07-05T14:22:03;2.28;;;0.70;;
73283;SDS011;61519;60.050;18.582;2022-07-05T14:24:29;3.90;;;0.60;;
73283;SDS011;61519;60.050;18.582;2022-07-05T14:26:55;3.17;;;0.70;;
73283;SDS011;61519;60.050;18.582;2022-07-05T14:29:20;2.33;;;0.67;;
73283;SDS011;61519;60.050;18.582;2022-07-05T14:31:46;2.13;;;0.50;;
73283;SDS011;61519;60.050;18.582;2022-07-05T14:34:11;1.70;;;0.60;;
73283;SDS011;61519;60.050;18.582;2022-07-05T14:36:36;3.83;;;0.70;;
73283;SDS011;61519;60.050;18.582;2022-07-05T14:39:02;5.60;;;0.90;;
73283;SDS011;61519;60.050;18.582;2022-07-05T14:41:27;2.07;;;0.70;;
73283;SDS011;61519;60.050;18.582;2022-07-05T14:43:53;3.28;;;0.65;;
73283;SDS011;61519;60.050;18.582;2022-07-05T14:46:19;3.23;;;0.70;;
73283;SDS011;61519;60.050;18.582;2022-07-05T14:48:45;3.38;;;0.70;;
73283;SDS011;61519;60.050;18.582;2022-07-05T14:51:11;5.88;;;0.70;;
73283;SDS011;61519;60.050;18.582;2022-07-05T14:53:36;2.17;;;0.50;;
73283;SDS011;61519;60.050;18.582;2022-07-05T14:56:02;5.20;;;0.60;;
73283;SDS011;61519;60.050;18.582;2022-07-05T14:58:27;4.50;;;0.70;;
73283;SDS011;61519;60.050;18.582;2022-07-05T15:00:57;2.97;;;1.00;;
73283;SDS011;61519;60.050;18.582;2022-07-05T15:03:23;2.33;;;0.57;;
73283;SDS011;61519;60.050;18.582;2022-07-05T15:05:49;3.13;;;0.70;;
73283;SDS011;61519;60.050;18.582;2022-07-05T15:08:15;2.17;;;0.80;;
73283;SDS011;61519;60.050;18.582;2022-07-05T15:10:40;2.30;;;0.70;;
73283;SDS011;61519;60.050;18.582;2022-07-05T15:13:05;1.90;;;0.40;;
73283;SDS011;61519;60.050;18.582;2022-07-05T15:15:32;2.15;;;0.60;;
73283;SDS011;61519;60.050;18.582;2022-07-05T15:17:58;3.50;;;0.80;;